sensor_id;sensor_type;location;lat;lon;timestamp;P1;durP1;ratioP1;P2;durP2;ratioP2
44746;SDS011;30472;49.490;10.972;2023-03-24T00:01:59;3.70;;;3.23;;
44746;SDS011;30472;49.490;10.972;2023-03-24T00:04:25;3.83;;;3.50;;
44746;SDS011;30472;49.490;10.972;2023-03-24T00:06:51;4.00;;;3.47;;
44746;SDS011;30472;49.490;10.972;2023-03-24T00:09:18;5.10;;;4.03;;
44746;SDS011;30472;49.490;10.972;2023-03-24T00:11:44;5.33;;;3.70;;
44746;SDS011;30472;49.490;10.972;2023-03-24T00:14:09;4.27;;;3.87;;
44746;SDS011;30472;49.490;10.972;2023-03-24T00:16:39;6.07;;;3.57;;
44746;SDS011;30472;49.490;10.972;2023-03-24T00:19:09;3.97;;;3.47;;
44746;SDS011;30472;49.490;10.972;2023-03-24T00:21:37;4.83;;;4.20;;
44746;SDS011;30472;49.490;10.972;2023-03-24T00:24:04;3.90;;;3.50;;
44746;SDS011;30472;49.490;10.972;2023-03-24T00:26:37;4.10;;;3.70;;
44746;SDS011;30472;49.490;10.972;2023-03-24T00:29:04;7.27;;;3.80;;
44746;SDS011;30472;49.490;10.972;2023-03-24T00:31:31;4.83;;;3.33;;
44746;SDS011;30472;49.490;10.972;2023-03-24T00:33:57;3.87;;;3.47;;
44746;SDS011;30472;49.490;10.972;2023-03-24T00:36:24;6.37;;;3.50;;
44746;SDS011;30472;49.490;10.972;2023-03-24T00:38:52;4.17;;;3.73;;
44746;SDS011;30472;49.490;10.972;2023-03-24T00:41:19;5.03;;;3.67;;
44746;SDS011;30472;49.490;10.972;2023-03-24T00:43:46;4.37;;;3.57;;
44746;SDS011;30472;49.490;10.972;2023-03-24T00:46:14;3.97;;;3.40;;
44746;SDS011;30472;49.490;10.972;2023-03-24T00:48:56;4.17;;;3.63;;
44746;SDS011;30472;49.490;10.972;2023-03-24T00:51:30;7.23;;;3.73;;
44746;SDS011;30472;49.490;10.972;2023-03-24T00:53:58;3.73;;;3.23;;
44746;SDS011;30472;49.490;10.972;2023-03-24T00:56:26;8.23;;;3.80;;
44746;SDS011;30472;49.490;10.972;2023-03-24T00:58:55;3.97;;;3.57;;
44746;SDS011;30472;49.490;10.972;2023-03-24T01:01:24;6.07;;;4.30;;
44746;SDS011;30472;49.490;10.972;2023-03-24T01:03:51;6.03;;;4.23;;
44746;SDS011;30472;49.490;10.972;2023-03-24T01:06:17;5.67;;;4.13;;
44746;SDS011;30472;49.490;10.972;2023-03-24T01:08:46;8.97;;;4.07;;
44746;SDS011;30472;49.490;10.972;2023-03-24T01:11:13;4.77;;;3.80;;
44746;SDS011;30472;49.490;10.972;2023-03-24T01:13:39;5.60;;;3.83;;
44746;SDS011;30472;49.490;10.972;2023-03-24T01:16:05;6.30;;;3.67;;
44746;SDS011;30472;49.490;10.972;2023-03-24T01:18:31;4.50;;;4.10;;
44746;SDS011;30472;49.490;10.972;2023-03-24T01:20:59;6.23;;;4.73;;
44746;SDS011;30472;49.490;10.972;2023-03-24T01:23:25;6.17;;;4.13;;
44746;SDS011;30472;49.490;10.972;2023-03-24T01:25:52;4.97;;;4.27;;
44746;SDS011;30472;49.490;10.972;2023-03-24T01:28:19;5.30;;;4.20;;
44746;SDS011;30472;49.490;10.972;2023-03-24T01:30:48;5.37;;;4.20;;
44746;SDS011;30472;49.490;10.972;2023-03-24T01:33:15;4.80;;;4.30;;
44746;SDS011;30472;49.490;10.972;2023-03-24T01:35:41;5.80;;;4.57;;
44746;SDS011;30472;49.490;10.972;2023-03-24T01:38:07;6.50;;;4.10;;
44746;SDS011;30472;49.490;10.972;2023-03-24T01:40:36;5.07;;;3.97;;
44746;SDS011;30472;49.490;10.972;2023-03-24T01:43:05;4.87;;;4.20;;
44746;SDS011;30472;49.490;10.972;2023-03-24T01:48:05;4.97;;;4.03;;
44746;SDS011;30472;49.490;10.972;2023-03-24T01:50:33;4.57;;;4.13;;
44746;SDS011;30472;49.490;10.972;2023-03-24T01:52:59;3.83;;;3.43;;
44746;SDS011;30472;49.490;10.972;2023-03-24T01:55:25;4.43;;;4.03;;
44746;SDS011;30472;49.490;10.972;2023-03-24T01:57:55;9.17;;;4.53;;
44746;SDS011;30472;49.490;10.972;2023-03-24T02:00:24;5.33;;;4.60;;
44746;SDS011;30472;49.490;10.972;2023-03-24T02:02:53;5.77;;;4.53;;
44746;SDS011;30472;49.490;10.972;2023-03-24T02:05:24;4.97;;;4.30;;
44746;SDS011;30472;49.490;10.972;2023-03-24T02:10:25;5.37;;;4.37;;
44746;SDS011;30472;49.490;10.972;2023-03-24T02:12:54;4.63;;;4.23;;
44746;SDS011;30472;49.490;10.972;2023-03-24T02:15:20;5.00;;;4.10;;
44746;SDS011;30472;49.490;10.972;2023-03-24T02:42:07;8.53;;;4.43;;
44746;SDS011;30472;49.490;10.972;2023-03-24T02:50:18;5.30;;;4.57;;
44746;SDS011;30472;49.490;10.972;2023-03-24T02:53:00;6.30;;;5.63;;
44746;SDS011;30472;49.490;10.972;2023-03-24T02:55:32;6.20;;;4.70;;
44746;SDS011;30472;49.490;10.972;2023-03-24T02:58:54;4.57;;;4.17;;
44746;SDS011;30472;49.490;10.972;2023-03-24T03:01:46;6.30;;;4.43;;
44746;SDS011;30472;49.490;10.972;2023-03-24T03:04:31;4.33;;;3.93;;
44746;SDS011;30472;49.490;10.972;2023-03-24T03:07:04;4.60;;;3.87;;
44746;SDS011;30472;49.490;10.972;2023-03-24T03:09:35;5.37;;;4.60;;
44746;SDS011;30472;49.490;10.972;2023-03-24T03:12:03;8.00;;;4.30;;
44746;SDS011;30472;49.490;10.972;2023-03-24T03:14:36;5.30;;;4.80;;
44746;SDS011;30472;49.490;10.972;2023-03-24T03:17:12;4.93;;;4.47;;
44746;SDS011;30472;49.490;10.972;2023-03-24T03:19:43;4.67;;;4.17;;
44746;SDS011;30472;49.490;10.972;2023-03-24T03:22:22;4.43;;;4.03;;
44746;SDS011;30472;49.490;10.972;2023-03-24T03:24:52;4.40;;;4.00;;
44746;SDS011;30472;49.490;10.972;2023-03-24T03:27:24;6.20;;;4.87;;
44746;SDS011;30472;49.490;10.972;2023-03-24T03:29:54;6.70;;;5.53;;
44746;SDS011;30472;49.490;10.972;2023-03-24T03:32:25;7.90;;;4.53;;
44746;SDS011;30472;49.490;10.972;2023-03-24T03:37:32;6.67;;;4.60;;
44746;SDS011;30472;49.490;10.972;2023-03-24T03:40:09;6.70;;;5.03;;
44746;SDS011;30472;49.490;10.972;2023-03-24T03:42:44;5.57;;;4.50;;
44746;SDS011;30472;49.490;10.972;2023-03-24T03:45:11;7.20;;;4.73;;
44746;SDS011;30472;49.490;10.972;2023-03-24T03:47:38;5.10;;;4.53;;
44746;SDS011;30472;49.490;10.972;2023-03-24T03:50:04;5.63;;;4.80;;
44746;SDS011;30472;49.490;10.972;2023-03-24T03:52:32;7.33;;;4.90;;
44746;SDS011;30472;49.490;10.972;2023-03-24T03:54:59;4.63;;;4.23;;
44746;SDS011;30472;49.490;10.972;2023-03-24T03:57:25;5.00;;;4.30;;
44746;SDS011;30472;49.490;10.972;2023-03-24T03:59:51;4.87;;;4.37;;
44746;SDS011;30472;49.490;10.972;2023-03-24T04:02:28;7.67;;;5.07;;
44746;SDS011;30472;49.490;10.972;2023-03-24T04:11:05;4.93;;;4.07;;
44746;SDS011;30472;49.490;10.972;2023-03-24T04:14:08;6.27;;;4.23;;
44746;SDS011;30472;49.490;10.972;2023-03-24T04:17:00;6.00;;;4.63;;
44746;SDS011;30472;49.490;10.972;2023-03-24T04:19:56;5.50;;;4.27;;
44746;SDS011;30472;49.490;10.972;2023-03-24T04:25:12;5.77;;;4.47;;
44746;SDS011;30472;49.490;10.972;2023-03-24T04:34:02;4.83;;;4.00;;
44746;SDS011;30472;49.490;10.972;2023-03-24T04:36:40;6.83;;;4.27;;
44746;SDS011;30472;49.490;10.972;2023-03-24T04:39:15;14.20;;;4.77;;
44746;SDS011;30472;49.490;10.972;2023-03-24T04:41:49;5.93;;;4.40;;
44746;SDS011;30472;49.490;10.972;2023-03-24T04:44:16;5.10;;;4.37;;
44746;SDS011;30472;49.490;10.972;2023-03-24T04:46:46;6.77;;;4.90;;
44746;SDS011;30472;49.490;10.972;2023-03-24T04:49:15;5.77;;;4.27;;
44746;SDS011;30472;49.490;10.972;2023-03-24T04:51:43;6.27;;;4.20;;
44746;SDS011;30472;49.490;10.972;2023-03-24T04:54:09;5.33;;;4.47;;
44746;SDS011;30472;49.490;10.972;2023-03-24T04:59:04;6.43;;;4.73;;
44746;SDS011;30472;49.490;10.972;2023-03-24T05:01:31;5.27;;;4.30;;
44746;SDS011;30472;49.490;10.972;2023-03-24T05:04:01;7.90;;;4.73;;
44746;SDS011;30472;49.490;10.972;2023-03-24T05:06:28;4.87;;;4.20;;
44746;SDS011;30472;49.490;10.972;2023-03-24T05:08:54;5.80;;;4.77;;
44746;SDS011;30472;49.490;10.972;2023-03-24T05:11:22;6.10;;;4.77;;
44746;SDS011;30472;49.490;10.972;2023-03-24T05:13:49;6.73;;;4.70;;
44746;SDS011;30472;49.490;10.972;2023-03-24T05:16:14;5.87;;;4.20;;
44746;SDS011;30472;49.490;10.972;2023-03-24T05:18:40;5.67;;;4.10;;
44746;SDS011;30472;49.490;10.972;2023-03-24T05:21:06;6.63;;;4.80;;
44746;SDS011;30472;49.490;10.972;2023-03-24T05:23:32;5.27;;;4.17;;
44746;SDS011;30472;49.490;10.972;2023-03-24T05:25:57;5.90;;;4.57;;
44746;SDS011;30472;49.490;10.972;2023-03-24T05:28:23;7.00;;;4.17;;
44746;SDS011;30472;49.490;10.972;2023-03-24T05:30:48;5.27;;;4.10;;
44746;SDS011;30472;49.490;10.972;2023-03-24T05:33:14;7.67;;;4.17;;
44746;SDS011;30472;49.490;10.972;2023-03-24T05:35:40;6.03;;;4.13;;
44746;SDS011;30472;49.490;10.972;2023-03-24T05:38:06;6.23;;;4.00;;
44746;SDS011;30472;49.490;10.972;2023-03-24T05:40:31;5.37;;;4.03;;
44746;SDS011;30472;49.490;10.972;2023-03-24T05:42:57;5.27;;;3.80;;
44746;SDS011;30472;49.490;10.972;2023-03-24T05:45:22;4.27;;;3.87;;
44746;SDS011;30472;49.490;10.972;2023-03-24T05:47:49;5.17;;;3.77;;
44746;SDS011;30472;49.490;10.972;2023-03-24T05:50:15;4.77;;;3.93;;
44746;SDS011;30472;49.490;10.972;2023-03-24T05:52:41;4.70;;;3.77;;
44746;SDS011;30472;49.490;10.972;2023-03-24T05:55:07;4.53;;;3.90;;
44746;SDS011;30472;49.490;10.972;2023-03-24T05:57:33;3.93;;;3.60;;
44746;SDS011;30472;49.490;10.972;2023-03-24T06:00:00;5.67;;;3.60;;
44746;SDS011;30472;49.490;10.972;2023-03-24T06:02:30;5.87;;;3.40;;
44746;SDS011;30472;49.490;10.972;2023-03-24T06:04:56;4.63;;;3.10;;
44746;SDS011;30472;49.490;10.972;2023-03-24T06:07:22;4.97;;;3.43;;
44746;SDS011;30472;49.490;10.972;2023-03-24T06:09:50;5.00;;;3.57;;
44746;SDS011;30472;49.490;10.972;2023-03-24T06:12:16;3.90;;;3.10;;
44746;SDS011;30472;49.490;10.972;2023-03-24T06:14:45;4.10;;;2.90;;
44746;SDS011;30472;49.490;10.972;2023-03-24T06:17:11;3.47;;;3.17;;
44746;SDS011;30472;49.490;10.972;2023-03-24T06:19:40;4.53;;;3.57;;
44746;SDS011;30472;49.490;10.972;2023-03-24T06:22:12;3.80;;;3.43;;
44746;SDS011;30472;49.490;10.972;2023-03-24T06:24:38;4.63;;;2.83;;
44746;SDS011;30472;49.490;10.972;2023-03-24T06:27:04;4.47;;;3.40;;
44746;SDS011;30472;49.490;10.972;2023-03-24T06:29:32;6.03;;;3.30;;
44746;SDS011;30472;49.490;10.972;2023-03-24T06:31:59;7.10;;;3.53;;
44746;SDS011;30472;49.490;10.972;2023-03-24T06:34:25;4.43;;;2.63;;
44746;SDS011;30472;49.490;10.972;2023-03-24T06:36:53;6.07;;;3.73;;
44746;SDS011;30472;49.490;10.972;2023-03-24T06:39:19;5.57;;;3.60;;
44746;SDS011;30472;49.490;10.972;2023-03-24T06:41:45;3.33;;;3.03;;
44746;SDS011;30472;49.490;10.972;2023-03-24T06:44:11;5.73;;;4.20;;
44746;SDS011;30472;49.490;10.972;2023-03-24T06:46:37;5.67;;;3.63;;
44746;SDS011;30472;49.490;10.972;2023-03-24T06:49:04;3.53;;;3.23;;
44746;SDS011;30472;49.490;10.972;2023-03-24T06:51:30;3.67;;;3.33;;
44746;SDS011;30472;49.490;10.972;2023-03-24T06:53:55;3.87;;;3.47;;
44746;SDS011;30472;49.490;10.972;2023-03-24T06:56:21;3.90;;;3.60;;
44746;SDS011;30472;49.490;10.972;2023-03-24T06:58:47;5.43;;;3.60;;
44746;SDS011;30472;49.490;10.972;2023-03-24T07:01:13;9.67;;;3.13;;
44746;SDS011;30472;49.490;10.972;2023-03-24T07:03:39;3.33;;;3.03;;
44746;SDS011;30472;49.490;10.972;2023-03-24T07:06:06;4.67;;;3.23;;
44746;SDS011;30472;49.490;10.972;2023-03-24T07:08:35;4.47;;;3.60;;
44746;SDS011;30472;49.490;10.972;2023-03-24T07:11:01;3.53;;;3.10;;
44746;SDS011;30472;49.490;10.972;2023-03-24T07:13:27;3.53;;;3.10;;
44746;SDS011;30472;49.490;10.972;2023-03-24T07:15:53;4.97;;;3.30;;
44746;SDS011;30472;49.490;10.972;2023-03-24T07:18:19;4.80;;;3.43;;
44746;SDS011;30472;49.490;10.972;2023-03-24T07:20:45;3.20;;;2.90;;
44746;SDS011;30472;49.490;10.972;2023-03-24T07:23:11;4.00;;;3.47;;
44746;SDS011;30472;49.490;10.972;2023-03-24T07:25:38;6.33;;;3.13;;
44746;SDS011;30472;49.490;10.972;2023-03-24T07:28:05;3.43;;;3.13;;
44746;SDS011;30472;49.490;10.972;2023-03-24T07:30:32;3.20;;;3.00;;
44746;SDS011;30472;49.490;10.972;2023-03-24T07:32:59;2.60;;;2.40;;
44746;SDS011;30472;49.490;10.972;2023-03-24T07:35:26;2.70;;;2.50;;
44746;SDS011;30472;49.490;10.972;2023-03-24T07:37:56;3.27;;;2.37;;
44746;SDS011;30472;49.490;10.972;2023-03-24T07:40:23;2.43;;;1.70;;
44746;SDS011;30472;49.490;10.972;2023-03-24T07:42:48;1.97;;;1.87;;
44746;SDS011;30472;49.490;10.972;2023-03-24T07:45:14;2.20;;;2.00;;
44746;SDS011;30472;49.490;10.972;2023-03-24T07:47:41;2.27;;;2.07;;
44746;SDS011;30472;49.490;10.972;2023-03-24T07:50:08;2.50;;;2.20;;
44746;SDS011;30472;49.490;10.972;2023-03-24T07:52:35;3.00;;;2.10;;
44746;SDS011;30472;49.490;10.972;2023-03-24T07:55:02;3.37;;;1.97;;
44746;SDS011;30472;49.490;10.972;2023-03-24T07:57:28;3.00;;;1.90;;
44746;SDS011;30472;49.490;10.972;2023-03-24T07:59:54;4.50;;;1.90;;
44746;SDS011;30472;49.490;10.972;2023-03-24T08:02:20;2.40;;;1.73;;
44746;SDS011;30472;49.490;10.972;2023-03-24T08:04:45;1.87;;;1.50;;
44746;SDS011;30472;49.490;10.972;2023-03-24T08:07:18;1.57;;;1.40;;
44746;SDS011;30472;49.490;10.972;2023-03-24T08:09:43;2.07;;;1.50;;
44746;SDS011;30472;49.490;10.972;2023-03-24T08:12:09;1.67;;;1.57;;
44746;SDS011;30472;49.490;10.972;2023-03-24T08:14:35;3.53;;;1.70;;
44746;SDS011;30472;49.490;10.972;2023-03-24T08:17:00;1.60;;;1.50;;
44746;SDS011;30472;49.490;10.972;2023-03-24T08:19:26;1.70;;;1.60;;
44746;SDS011;30472;49.490;10.972;2023-03-24T08:21:51;1.50;;;1.40;;
44746;SDS011;30472;49.490;10.972;2023-03-24T08:24:18;1.53;;;1.30;;
44746;SDS011;30472;49.490;10.972;2023-03-24T08:26:43;1.80;;;1.70;;
44746;SDS011;30472;49.490;10.972;2023-03-24T08:29:10;2.40;;;1.63;;
44746;SDS011;30472;49.490;10.972;2023-03-24T08:31:36;1.50;;;1.40;;
44746;SDS011;30472;49.490;10.972;2023-03-24T08:34:02;2.30;;;1.90;;
44746;SDS011;30472;49.490;10.972;2023-03-24T08:36:30;2.03;;;1.83;;
44746;SDS011;30472;49.490;10.972;2023-03-24T08:38:56;2.97;;;1.77;;
44746;SDS011;30472;49.490;10.972;2023-03-24T08:41:22;2.40;;;1.97;;
44746;SDS011;30472;49.490;10.972;2023-03-24T08:43:54;2.00;;;1.80;;
44746;SDS011;30472;49.490;10.972;2023-03-24T08:46:21;2.50;;;2.00;;
44746;SDS011;30472;49.490;10.972;2023-03-24T08:48:46;2.10;;;1.70;;
44746;SDS011;30472;49.490;10.972;2023-03-24T08:51:13;2.70;;;1.97;;
44746;SDS011;30472;49.490;10.972;2023-03-24T08:53:40;2.07;;;1.87;;
44746;SDS011;30472;49.490;10.972;2023-03-24T08:56:06;1.70;;;1.60;;
44746;SDS011;30472;49.490;10.972;2023-03-24T08:58:32;3.70;;;1.90;;
44746;SDS011;30472;49.490;10.972;2023-03-24T09:00:57;2.97;;;2.00;;
44746;SDS011;30472;49.490;10.972;2023-03-24T09:03:23;2.10;;;1.90;;
44746;SDS011;30472;49.490;10.972;2023-03-24T09:05:50;2.60;;;2.17;;
44746;SDS011;30472;49.490;10.972;2023-03-24T09:08:23;4.17;;;2.17;;
44746;SDS011;30472;49.490;10.972;2023-03-24T09:10:49;6.17;;;2.57;;
44746;SDS011;30472;49.490;10.972;2023-03-24T09:13:15;3.43;;;2.40;;
44746;SDS011;30472;49.490;10.972;2023-03-24T09:15:49;2.60;;;2.40;;
44746;SDS011;30472;49.490;10.972;2023-03-24T09:18:17;2.63;;;2.43;;
44746;SDS011;30472;49.490;10.972;2023-03-24T09:20:44;3.07;;;2.10;;
44746;SDS011;30472;49.490;10.972;2023-03-24T09:23:10;2.67;;;2.10;;
44746;SDS011;30472;49.490;10.972;2023-03-24T09:25:36;4.10;;;2.10;;
44746;SDS011;30472;49.490;10.972;2023-03-24T09:28:02;3.37;;;2.33;;
44746;SDS011;30472;49.490;10.972;2023-03-24T09:30:28;2.60;;;2.40;;
44746;SDS011;30472;49.490;10.972;2023-03-24T09:32:54;2.63;;;2.40;;
44746;SDS011;30472;49.490;10.972;2023-03-24T09:35:23;5.30;;;2.50;;
44746;SDS011;30472;49.490;10.972;2023-03-24T09:37:52;2.47;;;2.13;;
44746;SDS011;30472;49.490;10.972;2023-03-24T09:40:19;2.97;;;2.67;;
44746;SDS011;30472;49.490;10.972;2023-03-24T09:42:50;3.73;;;3.00;;
44746;SDS011;30472;49.490;10.972;2023-03-24T09:45:33;3.57;;;2.70;;
44746;SDS011;30472;49.490;10.972;2023-03-24T09:48:09;2.67;;;2.43;;
44746;SDS011;30472;49.490;10.972;2023-03-24T09:53:26;2.90;;;2.57;;
44746;SDS011;30472;49.490;10.972;2023-03-24T09:56:03;2.57;;;2.37;;
44746;SDS011;30472;49.490;10.972;2023-03-24T09:58:45;3.10;;;2.30;;
44746;SDS011;30472;49.490;10.972;2023-03-24T10:01:17;3.13;;;2.20;;
44746;SDS011;30472;49.490;10.972;2023-03-24T10:03:43;3.23;;;2.50;;
44746;SDS011;30472;49.490;10.972;2023-03-24T10:06:14;2.43;;;2.00;;
44746;SDS011;30472;49.490;10.972;2023-03-24T10:11:45;2.20;;;2.00;;
44746;SDS011;30472;49.490;10.972;2023-03-24T10:30:59;3.50;;;1.73;;
44746;SDS011;30472;49.490;10.972;2023-03-24T10:33:26;2.37;;;1.73;;
44746;SDS011;30472;49.490;10.972;2023-03-24T10:38:30;1.87;;;1.77;;
44746;SDS011;30472;49.490;10.972;2023-03-24T10:40:56;3.50;;;1.90;;
44746;SDS011;30472;49.490;10.972;2023-03-24T10:43:22;2.00;;;1.63;;
44746;SDS011;30472;49.490;10.972;2023-03-24T10:45:52;1.57;;;1.47;;
44746;SDS011;30472;49.490;10.972;2023-03-24T10:48:34;2.27;;;1.50;;
44746;SDS011;30472;49.490;10.972;2023-03-24T10:51:06;2.60;;;1.20;;
44746;SDS011;30472;49.490;10.972;2023-03-24T10:53:40;1.93;;;1.60;;
44746;SDS011;30472;49.490;10.972;2023-03-24T10:56:07;1.60;;;1.50;;
44746;SDS011;30472;49.490;10.972;2023-03-24T10:58:38;1.77;;;1.60;;
44746;SDS011;30472;49.490;10.972;2023-03-24T11:01:24;2.13;;;1.87;;
44746;SDS011;30472;49.490;10.972;2023-03-24T11:03:58;1.60;;;1.50;;
44746;SDS011;30472;49.490;10.972;2023-03-24T11:06:28;2.50;;;1.57;;
44746;SDS011;30472;49.490;10.972;2023-03-24T11:11:52;2.37;;;1.50;;
44746;SDS011;30472;49.490;10.972;2023-03-24T11:14:20;2.00;;;1.80;;
44746;SDS011;30472;49.490;10.972;2023-03-24T11:16:51;1.77;;;1.40;;
44746;SDS011;30472;49.490;10.972;2023-03-24T11:21:47;2.30;;;1.53;;
44746;SDS011;30472;49.490;10.972;2023-03-24T11:24:15;2.87;;;1.50;;
44746;SDS011;30472;49.490;10.972;2023-03-24T11:26:43;2.20;;;1.83;;
44746;SDS011;30472;49.490;10.972;2023-03-24T11:29:24;1.77;;;1.67;;
44746;SDS011;30472;49.490;10.972;2023-03-24T11:31:53;1.70;;;1.57;;
44746;SDS011;30472;49.490;10.972;2023-03-24T11:34:22;1.50;;;1.40;;
44746;SDS011;30472;49.490;10.972;2023-03-24T11:36:58;1.80;;;1.70;;
44746;SDS011;30472;49.490;10.972;2023-03-24T11:39:28;1.70;;;1.57;;
44746;SDS011;30472;49.490;10.972;2023-03-24T11:47:03;1.93;;;1.53;;
44746;SDS011;30472;49.490;10.972;2023-03-24T11:49:51;2.20;;;1.67;;
44746;SDS011;30472;49.490;10.972;2023-03-24T11:52:37;2.80;;;1.50;;
44746;SDS011;30472;49.490;10.972;2023-03-24T11:55:13;1.87;;;1.37;;
44746;SDS011;30472;49.490;10.972;2023-03-24T12:00:24;2.00;;;1.73;;
44746;SDS011;30472;49.490;10.972;2023-03-24T12:03:06;1.60;;;1.50;;
44746;SDS011;30472;49.490;10.972;2023-03-24T12:05:44;1.70;;;1.60;;
44746;SDS011;30472;49.490;10.972;2023-03-24T12:08:28;1.63;;;1.33;;
44746;SDS011;30472;49.490;10.972;2023-03-24T12:11:06;3.97;;;1.27;;
44746;SDS011;30472;49.490;10.972;2023-03-24T12:13:46;2.27;;;1.80;;
44746;SDS011;30472;49.490;10.972;2023-03-24T12:27:06;2.50;;;1.20;;
44746;SDS011;30472;49.490;10.972;2023-03-24T12:33:12;1.50;;;1.40;;
44746;SDS011;30472;49.490;10.972;2023-03-24T12:35:38;1.30;;;1.20;;
44746;SDS011;30472;49.490;10.972;2023-03-24T12:48:51;1.53;;;1.30;;
44746;SDS011;30472;49.490;10.972;2023-03-24T12:56:47;1.50;;;1.10;;
44746;SDS011;30472;49.490;10.972;2023-03-24T12:59:18;1.93;;;1.30;;
44746;SDS011;30472;49.490;10.972;2023-03-24T13:01:50;1.83;;;1.50;;
44746;SDS011;30472;49.490;10.972;2023-03-24T13:04:32;1.10;;;1.00;;
44746;SDS011;30472;49.490;10.972;2023-03-24T13:15:50;3.30;;;1.77;;
44746;SDS011;30472;49.490;10.972;2023-03-24T13:20:59;2.97;;;1.40;;
44746;SDS011;30472;49.490;10.972;2023-03-24T13:34:48;3.67;;;1.70;;
44746;SDS011;30472;49.490;10.972;2023-03-24T13:37:22;3.40;;;2.10;;
44746;SDS011;30472;49.490;10.972;2023-03-24T13:39:59;3.67;;;1.77;;
44746;SDS011;30472;49.490;10.972;2023-03-24T13:42:28;2.70;;;1.87;;
44746;SDS011;30472;49.490;10.972;2023-03-24T13:45:00;3.13;;;2.10;;
44746;SDS011;30472;49.490;10.972;2023-03-24T13:47:46;4.90;;;1.87;;
44746;SDS011;30472;49.490;10.972;2023-03-24T13:50:13;3.27;;;2.20;;
44746;SDS011;30472;49.490;10.972;2023-03-24T13:52:44;3.33;;;2.20;;
44746;SDS011;30472;49.490;10.972;2023-03-24T13:55:24;4.53;;;2.30;;
44746;SDS011;30472;49.490;10.972;2023-03-24T13:58:06;4.03;;;2.10;;
44746;SDS011;30472;49.490;10.972;2023-03-24T14:03:33;2.47;;;2.00;;
44746;SDS011;30472;49.490;10.972;2023-03-24T14:06:03;2.00;;;1.90;;
44746;SDS011;30472;49.490;10.972;2023-03-24T14:08:42;2.20;;;2.00;;
44746;SDS011;30472;49.490;10.972;2023-03-24T14:12:18;2.50;;;2.30;;
44746;SDS011;30472;49.490;10.972;2023-03-24T14:14:33;2.67;;;1.60;;
44746;SDS011;30472;49.490;10.972;2023-03-24T14:17:05;2.43;;;1.87;;
44746;SDS011;30472;49.490;10.972;2023-03-24T14:24:36;3.20;;;1.10;;
44746;SDS011;30472;49.490;10.972;2023-03-24T14:27:20;2.83;;;0.90;;
44746;SDS011;30472;49.490;10.972;2023-03-24T14:29:50;1.20;;;0.97;;
44746;SDS011;30472;49.490;10.972;2023-03-24T14:32:17;1.30;;;1.20;;
44746;SDS011;30472;49.490;10.972;2023-03-24T14:34:56;3.03;;;1.10;;
44746;SDS011;30472;49.490;10.972;2023-03-24T14:37:27;2.90;;;1.47;;
44746;SDS011;30472;49.490;10.972;2023-03-24T14:39:54;1.30;;;1.20;;
44746;SDS011;30472;49.490;10.972;2023-03-24T14:42:51;1.40;;;1.30;;
44746;SDS011;30472;49.490;10.972;2023-03-24T14:47:56;3.03;;;1.57;;
44746;SDS011;30472;49.490;10.972;2023-03-24T14:50:24;2.30;;;1.30;;
44746;SDS011;30472;49.490;10.972;2023-03-24T14:52:51;3.27;;;2.50;;
44746;SDS011;30472;49.490;10.972;2023-03-24T14:55:21;1.90;;;1.70;;
44746;SDS011;30472;49.490;10.972;2023-03-24T14:57:50;4.73;;;1.80;;
44746;SDS011;30472;49.490;10.972;2023-03-24T15:00:22;4.50;;;1.83;;
44746;SDS011;30472;49.490;10.972;2023-03-24T15:02:58;2.67;;;2.00;;
44746;SDS011;30472;49.490;10.972;2023-03-24T15:05:41;6.60;;;2.67;;
44746;SDS011;30472;49.490;10.972;2023-03-24T15:08:14;6.70;;;3.40;;
44746;SDS011;30472;49.490;10.972;2023-03-24T15:15:59;4.73;;;1.70;;
44746;SDS011;30472;49.490;10.972;2023-03-24T15:18:28;3.13;;;1.70;;
44746;SDS011;30472;49.490;10.972;2023-03-24T15:20:54;1.50;;;1.40;;
44746;SDS011;30472;49.490;10.972;2023-03-24T15:23:24;3.20;;;1.53;;
44746;SDS011;30472;49.490;10.972;2023-03-24T15:25:55;1.47;;;1.13;;
44746;SDS011;30472;49.490;10.972;2023-03-24T15:28:27;2.27;;;1.70;;
44746;SDS011;30472;49.490;10.972;2023-03-24T15:30:54;2.10;;;1.80;;
44746;SDS011;30472;49.490;10.972;2023-03-24T15:33:23;2.47;;;1.77;;
44746;SDS011;30472;49.490;10.972;2023-03-24T15:35:53;3.50;;;1.93;;
44746;SDS011;30472;49.490;10.972;2023-03-24T15:38:26;1.90;;;1.80;;
44746;SDS011;30472;49.490;10.972;2023-03-24T15:40:57;1.93;;;1.57;;
44746;SDS011;30472;49.490;10.972;2023-03-24T15:43:27;2.63;;;1.80;;
44746;SDS011;30472;49.490;10.972;2023-03-24T15:45:53;1.90;;;1.80;;
44746;SDS011;30472;49.490;10.972;2023-03-24T15:48:22;4.47;;;1.80;;
44746;SDS011;30472;49.490;10.972;2023-03-24T15:53:37;2.40;;;1.47;;
44746;SDS011;30472;49.490;10.972;2023-03-24T16:01:38;3.93;;;2.27;;
44746;SDS011;30472;49.490;10.972;2023-03-24T16:04:06;2.97;;;1.80;;
44746;SDS011;30472;49.490;10.972;2023-03-24T16:06:37;2.20;;;2.00;;
44746;SDS011;30472;49.490;10.972;2023-03-24T16:09:09;3.00;;;2.03;;
44746;SDS011;30472;49.490;10.972;2023-03-24T16:11:37;2.37;;;2.17;;
44746;SDS011;30472;49.490;10.972;2023-03-24T16:14:25;5.53;;;1.93;;
44746;SDS011;30472;49.490;10.972;2023-03-24T16:16:53;5.90;;;1.90;;
44746;SDS011;30472;49.490;10.972;2023-03-24T16:19:20;3.20;;;2.23;;
44746;SDS011;30472;49.490;10.972;2023-03-24T16:21:46;2.10;;;1.67;;
44746;SDS011;30472;49.490;10.972;2023-03-24T16:24:11;2.33;;;1.90;;
44746;SDS011;30472;49.490;10.972;2023-03-24T16:26:37;3.37;;;2.00;;
44746;SDS011;30472;49.490;10.972;2023-03-24T16:31:37;3.63;;;2.27;;
44746;SDS011;30472;49.490;10.972;2023-03-24T16:34:03;4.43;;;1.97;;
44746;SDS011;30472;49.490;10.972;2023-03-24T16:36:29;5.80;;;2.27;;
44746;SDS011;30472;49.490;10.972;2023-03-24T16:38:57;3.27;;;2.23;;
44746;SDS011;30472;49.490;10.972;2023-03-24T16:41:24;3.27;;;1.93;;
44746;SDS011;30472;49.490;10.972;2023-03-24T16:43:50;3.10;;;2.10;;
44746;SDS011;30472;49.490;10.972;2023-03-24T16:46:21;4.07;;;2.50;;
44746;SDS011;30472;49.490;10.972;2023-03-24T16:48:58;2.53;;;2.00;;
44746;SDS011;30472;49.490;10.972;2023-03-24T16:51:25;5.23;;;2.50;;
44746;SDS011;30472;49.490;10.972;2023-03-24T16:53:51;4.30;;;2.47;;
44746;SDS011;30472;49.490;10.972;2023-03-24T16:56:18;3.37;;;2.30;;
44746;SDS011;30472;49.490;10.972;2023-03-24T16:58:45;2.47;;;2.00;;
44746;SDS011;30472;49.490;10.972;2023-03-24T17:01:13;4.83;;;2.07;;
44746;SDS011;30472;49.490;10.972;2023-03-24T17:03:51;5.47;;;2.10;;
44746;SDS011;30472;49.490;10.972;2023-03-24T17:06:18;8.13;;;2.70;;
44746;SDS011;30472;49.490;10.972;2023-03-24T17:08:44;2.23;;;2.07;;
44746;SDS011;30472;49.490;10.972;2023-03-24T17:11:10;4.20;;;2.20;;
44746;SDS011;30472;49.490;10.972;2023-03-24T17:13:36;4.03;;;2.90;;
44746;SDS011;30472;49.490;10.972;2023-03-24T17:16:01;2.90;;;2.30;;
44746;SDS011;30472;49.490;10.972;2023-03-24T17:18:27;4.43;;;2.67;;
44746;SDS011;30472;49.490;10.972;2023-03-24T17:20:53;3.30;;;3.00;;
44746;SDS011;30472;49.490;10.972;2023-03-24T17:23:18;7.97;;;2.80;;
44746;SDS011;30472;49.490;10.972;2023-03-24T17:25:45;6.00;;;2.97;;
44746;SDS011;30472;49.490;10.972;2023-03-24T17:28:14;3.70;;;2.50;;
44746;SDS011;30472;49.490;10.972;2023-03-24T17:30:40;3.67;;;2.60;;
44746;SDS011;30472;49.490;10.972;2023-03-24T17:33:08;7.97;;;3.07;;
44746;SDS011;30472;49.490;10.972;2023-03-24T17:35:38;7.50;;;2.50;;
44746;SDS011;30472;49.490;10.972;2023-03-24T17:38:04;3.17;;;2.53;;
44746;SDS011;30472;49.490;10.972;2023-03-24T17:40:30;3.77;;;2.53;;
44746;SDS011;30472;49.490;10.972;2023-03-24T17:42:55;5.90;;;2.50;;